createdAt,value
2023-03-26T00:00:38.161Z,0.0000
2023-03-26T00:01:39.501Z,0.0000
2023-03-26T00:02:40.141Z,0.0000
2023-03-26T00:03:41.588Z,0.0000
2023-03-26T00:04:41.662Z,0.0000
2023-03-26T00:06:42.941Z,0.0000
2023-03-26T00:07:42.974Z,0.0000
2023-03-26T00:08:44.215Z,0.0000
2023-03-26T00:09:44.225Z,0.0000
2023-03-26T00:10:45.617Z,0.0000
2023-03-26T00:11:45.612Z,0.0000
2023-03-26T00:12:45.629Z,0.0000
2023-03-26T00:13:46.847Z,0.0000
2023-03-26T00:14:46.881Z,0.0000
2023-03-26T00:15:48.127Z,0.0000
2023-03-26T00:16:48.530Z,0.0000
2023-03-26T00:17:48.566Z,0.0000
2023-03-26T00:18:49.433Z,0.0000
2023-03-26T00:19:50.897Z,0.0000
2023-03-26T00:20:52.021Z,0.0000
2023-03-26T00:22:53.116Z,0.0000
2023-03-26T00:23:53.420Z,0.0000
2023-03-26T00:24:54.638Z,0.0000
2023-03-26T00:25:55.548Z,0.0000
2023-03-26T00:26:55.832Z,0.0000
2023-03-26T00:27:57.048Z,0.0000
2023-03-26T00:28:57.103Z,0.0000
2023-03-26T00:29:58.272Z,0.0000
2023-03-26T00:30:58.534Z,0.0000
2023-03-26T00:31:58.570Z,0.0000
2023-03-26T00:32:58.820Z,0.0000
2023-03-26T00:34:00.083Z,0.0000
2023-03-26T00:35:00.067Z,0.0000
2023-03-26T00:36:05.181Z,0.0000
2023-03-26T00:37:05.139Z,0.0000
2023-03-26T00:38:06.443Z,0.0000
2023-03-26T00:39:06.866Z,0.0000
2023-03-26T00:40:07.231Z,0.0000
2023-03-26T00:41:07.319Z,0.0000
2023-03-26T00:42:07.522Z,0.0000
2023-03-26T00:43:07.635Z,0.0000
2023-03-26T00:44:08.948Z,0.0000
2023-03-26T00:45:08.968Z,0.0000
2023-03-26T00:46:10.353Z,0.0000
2023-03-26T00:47:10.913Z,0.0000
2023-03-26T00:48:11.343Z,0.0000
2023-03-26T00:49:12.054Z,0.0000
2023-03-26T00:50:12.087Z,0.0000
2023-03-26T00:51:13.259Z,0.0000
2023-03-26T00:52:13.267Z,0.0000
2023-03-26T00:53:14.729Z,0.0000
2023-03-26T00:54:14.728Z,0.0000
2023-03-26T00:55:14.746Z,0.0000
2023-03-26T00:56:15.950Z,0.0000
2023-03-26T00:57:34.548Z,0.0000
2023-03-26T00:58:20.599Z,0.0000
2023-03-26T00:59:20.607Z,0.0000
2023-03-26T01:00:22.011Z,0.0000
2023-03-26T01:01:22.043Z,0.0000
2023-03-26T01:02:22.250Z,0.0000
2023-03-26T01:03:27.840Z,0.0000
2023-03-26T01:05:24.364Z,0.0000
2023-03-26T01:06:24.404Z,0.0000
2023-03-26T01:07:25.556Z,0.0000
2023-03-26T01:08:25.610Z,0.0000
2023-03-26T01:09:26.793Z,0.0000
2023-03-26T01:10:28.131Z,0.0000
2023-03-26T01:11:29.438Z,0.0000
2023-03-26T01:12:30.657Z,0.0000
2023-03-26T01:13:30.801Z,0.0000
2023-03-26T01:14:32.007Z,0.0000
2023-03-26T01:15:32.081Z,0.0000
2023-03-26T01:16:32.380Z,0.0000
2023-03-26T01:17:32.487Z,0.0000
2023-03-26T01:18:33.672Z,0.0000
2023-03-26T01:19:33.719Z,0.0000
2023-03-26T01:20:35.117Z,0.0000
2023-03-26T01:21:36.287Z,0.0000
2023-03-26T01:22:37.597Z,0.0000
2023-03-26T01:23:38.885Z,0.0000
2023-03-26T01:24:38.899Z,0.0000
2023-03-26T01:25:40.238Z,0.0000
2023-03-26T01:26:41.410Z,0.0000
2023-03-26T01:29:43.831Z,0.0000
2023-03-26T01:30:43.786Z,0.0000
2023-03-26T01:31:45.113Z,0.0000
2023-03-26T01:32:46.134Z,0.0000
2023-03-26T01:33:46.194Z,0.0000
2023-03-26T01:34:46.254Z,0.0000
2023-03-26T01:35:47.571Z,0.0000
2023-03-26T01:36:47.797Z,0.0000
2023-03-26T01:37:48.989Z,0.0000
2023-03-26T01:38:49.599Z,0.0000
2023-03-26T01:39:51.162Z,0.0000
2023-03-26T01:40:51.786Z,0.0000
2023-03-26T01:41:51.861Z,0.0000
2023-03-26T01:42:53.094Z,0.0000
2023-03-26T01:43:53.076Z,0.0000
2023-03-26T01:44:54.405Z,0.0000
2023-03-26T01:45:55.875Z,0.0000
2023-03-26T01:46:56.481Z,0.0000
2023-03-26T01:47:56.499Z,0.0000
2023-03-26T01:48:56.566Z,0.0000
2023-03-26T01:49:56.644Z,0.0000
2023-03-26T01:50:56.794Z,0.0000
2023-03-26T01:51:58.131Z,0.0000
2023-03-26T01:52:59.355Z,0.0000
2023-03-26T01:53:59.442Z,0.0000
2023-03-26T01:55:00.701Z,0.0000
2023-03-26T01:56:00.745Z,0.0000
2023-03-26T01:57:00.758Z,0.0000
2023-03-26T01:58:00.842Z,0.0000
2023-03-26T01:59:02.024Z,0.0000
2023-03-26T02:00:03.328Z,0.0000
2023-03-26T02:01:03.512Z,0.0000
2023-03-26T02:02:03.711Z,0.0000
2023-03-26T02:03:04.982Z,0.0000
2023-03-26T02:04:05.156Z,0.0000
2023-03-26T02:06:05.681Z,0.0000
2023-03-26T02:07:06.785Z,0.0000
2023-03-26T02:08:07.108Z,0.0000
2023-03-26T02:09:08.350Z,0.0000
2023-03-26T02:10:08.423Z,0.0000
2023-03-26T02:11:09.878Z,0.0000
2023-03-26T02:12:09.895Z,0.0000
2023-03-26T02:13:09.922Z,0.0000
2023-03-26T02:14:11.121Z,0.0000
2023-03-26T02:15:11.165Z,0.0000
2023-03-26T02:16:11.147Z,0.0000
2023-03-26T02:17:11.470Z,0.0000
2023-03-26T02:18:11.569Z,0.0000
2023-03-26T02:19:11.641Z,0.0000
2023-03-26T02:20:12.820Z,0.0000
2023-03-26T02:21:12.881Z,0.0000
2023-03-26T02:22:14.213Z,0.0000
2023-03-26T02:23:15.533Z,0.0000
2023-03-26T02:24:15.632Z,0.0000
2023-03-26T02:25:16.862Z,0.0000
2023-03-26T02:27:17.851Z,0.0000
2023-03-26T02:28:17.889Z,0.0000
2023-03-26T02:29:19.325Z,0.0000
2023-03-26T02:30:20.550Z,0.0000
2023-03-26T02:31:20.636Z,0.0000
2023-03-26T02:32:20.714Z,0.0000
2023-03-26T02:33:21.322Z,0.0000
2023-03-26T02:34:22.599Z,0.0000
2023-03-26T02:35:22.959Z,0.0000
2023-03-26T02:37:23.641Z,0.0000
2023-03-26T02:38:25.093Z,0.0000
2023-03-26T02:39:25.090Z,0.0000
2023-03-26T02:40:25.423Z,0.0000
2023-03-26T02:41:26.644Z,0.0000
2023-03-26T02:42:26.771Z,0.0000
2023-03-26T02:43:27.947Z,0.0000
2023-03-26T02:45:29.323Z,0.0000
2023-03-26T02:46:29.531Z,0.0000
2023-03-26T02:47:29.936Z,0.0000
2023-03-26T02:48:29.912Z,0.0000
2023-03-26T02:49:30.020Z,0.0000
2023-03-26T02:50:30.026Z,0.0000
2023-03-26T02:51:30.549Z,0.0000
2023-03-26T02:52:31.832Z,0.0000
2023-03-26T02:53:32.110Z,0.0000
2023-03-26T02:54:32.061Z,0.0000
2023-03-26T02:55:32.160Z,0.0000
2023-03-26T02:56:33.425Z,0.0000
2023-03-26T02:57:33.702Z,0.0000
2023-03-26T02:58:33.749Z,0.0000
2023-03-26T02:59:33.881Z,0.0000
2023-03-26T03:00:34.121Z,0.0000
2023-03-26T03:01:34.607Z,0.0000
2023-03-26T03:02:34.730Z,0.0000
2023-03-26T03:03:35.440Z,0.0000
2023-03-26T03:04:35.611Z,0.0000
2023-03-26T03:05:35.629Z,0.0000
2023-03-26T03:06:35.738Z,0.0000
2023-03-26T03:07:37.065Z,0.0000
2023-03-26T03:08:37.217Z,0.0000
2023-03-26T03:09:38.512Z,0.0000
2023-03-26T03:10:38.621Z,0.0000
2023-03-26T03:11:39.948Z,0.0000
2023-03-26T03:12:39.994Z,0.0000
2023-03-26T03:13:41.488Z,0.0000
2023-03-26T03:14:42.782Z,0.0000
2023-03-26T03:15:42.958Z,0.0000
2023-03-26T03:16:43.101Z,0.0000
2023-03-26T03:17:43.578Z,0.0000
2023-03-26T03:18:43.662Z,0.0000
2023-03-26T03:19:43.783Z,0.0000
2023-03-26T03:20:43.835Z,0.0000
2023-03-26T03:21:43.991Z,0.0000
2023-03-26T03:22:45.284Z,0.0000
2023-03-26T03:23:45.395Z,0.0000
2023-03-26T03:24:46.683Z,0.0000
2023-03-26T03:25:46.791Z,0.0000
2023-03-26T03:26:47.920Z,0.0000
2023-03-26T03:27:47.876Z,0.0000
2023-03-26T03:28:48.016Z,0.0000
2023-03-26T03:29:49.304Z,0.0000
2023-03-26T03:30:49.551Z,0.0000
2023-03-26T03:31:50.106Z,0.0000
2023-03-26T03:32:50.695Z,0.0000
2023-03-26T03:33:50.845Z,0.0000
2023-03-26T03:34:51.004Z,0.0000
2023-03-26T03:35:51.327Z,0.0000
2023-03-26T03:37:52.740Z,0.0000
2023-03-26T03:38:54.070Z,0.0000
2023-03-26T03:39:54.242Z,0.0000
2023-03-26T03:40:54.253Z,0.0000
2023-03-26T03:42:55.664Z,0.0000
2023-03-26T03:43:55.929Z,0.0000
2023-03-26T03:44:56.100Z,0.0000
2023-03-26T03:45:56.682Z,0.0000
2023-03-26T03:46:57.284Z,0.0000
2023-03-26T03:47:57.674Z,0.0000
2023-03-26T03:48:57.942Z,0.0000
2023-03-26T03:49:59.215Z,0.0000
2023-03-26T03:50:59.523Z,0.0000
2023-03-26T03:51:59.540Z,0.0000
2023-03-26T03:52:59.965Z,0.0000
2023-03-26T03:54:00.002Z,0.0000
2023-03-26T03:55:00.158Z,0.0000
2023-03-26T03:56:00.348Z,0.0000
2023-03-26T03:57:00.770Z,0.0000
2023-03-26T03:58:00.768Z,0.0000
2023-03-26T03:59:00.886Z,0.0000
2023-03-26T04:00:01.684Z,0.0000
2023-03-26T04:01:03.037Z,0.0000
2023-03-26T04:02:03.181Z,0.0000
2023-03-26T04:03:03.695Z,0.0000
2023-03-26T04:04:04.723Z,0.0000
2023-03-26T04:05:04.950Z,0.0000
2023-03-26T04:06:05.169Z,0.0000
2023-03-26T04:07:05.152Z,0.0000
2023-03-26T04:08:05.331Z,0.0000
2023-03-26T04:10:08.095Z,0.0000
2023-03-26T04:11:08.225Z,0.0000
2023-03-26T04:12:08.221Z,0.0000
2023-03-26T04:13:08.318Z,0.0000
2023-03-26T04:14:08.336Z,0.0000
2023-03-26T04:15:08.495Z,0.0000
2023-03-26T04:16:08.637Z,0.0000
2023-03-26T04:17:08.932Z,0.0000
2023-03-26T04:18:09.081Z,0.0000
2023-03-26T04:19:09.240Z,0.0000
2023-03-26T04:20:09.289Z,0.0000
2023-03-26T04:21:09.477Z,0.0000
2023-03-26T04:22:09.481Z,0.0000
2023-03-26T04:23:09.619Z,0.0000
2023-03-26T04:24:10.879Z,0.0000
2023-03-26T04:25:11.474Z,0.0000
2023-03-26T04:26:11.622Z,0.0000
2023-03-26T04:27:11.650Z,0.0000
2023-03-26T04:28:11.817Z,0.0000
2023-03-26T04:29:13.157Z,0.0000
2023-03-26T04:31:14.465Z,0.0000
2023-03-26T04:32:14.950Z,0.0000
2023-03-26T04:33:15.169Z,0.0000
2023-03-26T04:34:15.375Z,0.0000
2023-03-26T04:35:15.353Z,0.0000
2023-03-26T04:36:15.771Z,0.0000
2023-03-26T04:37:15.763Z,0.0000
2023-03-26T04:39:15.836Z,0.0000
2023-03-26T04:40:16.033Z,0.0000
2023-03-26T04:41:16.014Z,0.0000
2023-03-26T04:42:16.119Z,0.0000
2023-03-26T04:43:16.147Z,0.0000
2023-03-26T04:44:16.217Z,0.0000
2023-03-26T04:45:17.507Z,0.0000
2023-03-26T04:46:17.702Z,0.0000
2023-03-26T04:47:17.781Z,0.0000
2023-03-26T04:48:18.444Z,0.0000
2023-03-26T04:49:19.926Z,0.0000
2023-03-26T04:50:21.213Z,0.0000
2023-03-26T04:51:21.428Z,0.0000
2023-03-26T04:52:21.446Z,0.0000
2023-03-26T04:53:22.598Z,0.0000
2023-03-26T04:54:24.094Z,0.0000
2023-03-26T04:55:25.430Z,0.0000
2023-03-26T04:56:25.581Z,0.0000
2023-03-26T04:57:25.731Z,0.0000
2023-03-26T04:58:25.856Z,0.0000
2023-03-26T04:59:25.858Z,0.0000
2023-03-26T05:00:26.023Z,0.0000
2023-03-26T05:01:26.036Z,0.0000
2023-03-26T05:02:26.350Z,0.0000
2023-03-26T05:03:27.002Z,0.0000
2023-03-26T05:04:27.618Z,0.0000
2023-03-26T05:05:27.682Z,0.0000
2023-03-26T05:06:28.525Z,0.0000
2023-03-26T05:07:28.520Z,0.0000
2023-03-26T05:08:28.733Z,0.0000
2023-03-26T05:09:28.709Z,0.0000
2023-03-26T05:10:28.771Z,0.0000
2023-03-26T05:11:29.563Z,0.0000
2023-03-26T05:12:29.697Z,0.0000
2023-03-26T05:13:29.750Z,0.0000
2023-03-26T05:14:30.054Z,0.0000
2023-03-26T05:15:31.582Z,0.0000
2023-03-26T05:16:31.944Z,0.0000
2023-03-26T05:17:32.381Z,0.0000
2023-03-26T05:18:32.537Z,0.0000
2023-03-26T05:19:32.687Z,0.0000
2023-03-26T05:20:32.697Z,0.0000
2023-03-26T05:21:32.834Z,0.0000
2023-03-26T05:23:34.146Z,4.9858
2023-03-26T05:24:34.166Z,5.6250
2023-03-26T05:25:34.353Z,5.6250
2023-03-26T05:26:34.315Z,5.6250
2023-03-26T05:27:34.431Z,5.6250
2023-03-26T05:28:35.722Z,5.6250
2023-03-26T05:29:35.830Z,5.6250
2023-03-26T05:30:36.182Z,5.6250
2023-03-26T05:31:36.613Z,5.6250
2023-03-26T05:32:36.783Z,5.6250
2023-03-26T05:33:36.856Z,5.6250
2023-03-26T05:34:37.162Z,5.6250
2023-03-26T05:35:37.460Z,5.6250
2023-03-26T05:36:37.733Z,5.6250
2023-03-26T05:37:38.010Z,5.6250
2023-03-26T05:38:38.462Z,5.6250
2023-03-26T05:39:38.626Z,5.6250
2023-03-26T05:40:39.067Z,9.5881
2023-03-26T05:41:39.323Z,11.1222
2023-03-26T05:42:39.430Z,11.1222
2023-03-26T05:43:39.702Z,11.2500
2023-03-26T05:44:39.892Z,11.2500
2023-03-26T05:45:40.184Z,11.2500
2023-03-26T05:46:40.487Z,11.2500
2023-03-26T05:47:41.106Z,11.2500
2023-03-26T05:48:41.663Z,12.7841
2023-03-26T05:49:41.744Z,16.8750
2023-03-26T05:50:41.988Z,18.6648
2023-03-26T05:52:42.510Z,22.5000
2023-03-26T05:53:42.583Z,22.5000
2023-03-26T05:55:44.085Z,20.8750
2023-03-26T05:56:44.884Z,22.5000
2023-03-26T05:57:45.185Z,22.5000
2023-03-26T05:58:45.379Z,22.5000
2023-03-26T05:59:45.424Z,27.9972
2023-03-26T06:00:45.682Z,29.4034
2023-03-26T06:01:46.269Z,34.5170
2023-03-26T06:02:46.899Z,39.3750
2023-03-26T06:04:48.173Z,39.3750
2023-03-26T06:05:48.629Z,39.3750
2023-03-26T06:06:48.677Z,46.0227
2023-03-26T06:07:48.967Z,54.0767
2023-03-26T06:08:49.044Z,60.7244
2023-03-26T06:09:50.425Z,69.0625
2023-03-26T06:10:51.071Z,80.1562
2023-03-26T06:11:52.068Z,100.3551
2023-03-26T06:12:52.134Z,122.7273
2023-03-26T06:14:53.640Z,150.3750
2023-03-26T06:15:53.942Z,138.1960
2023-03-26T06:16:54.090Z,117.8036
2023-03-26T06:17:54.296Z,110.0710
2023-03-26T06:18:59.555Z,97.1591
2023-03-26T06:19:59.813Z,85.3977
2023-03-26T06:21:00.301Z,84.3750
2023-03-26T06:22:00.515Z,84.2472
2023-03-26T06:23:00.583Z,84.3750
2023-03-26T06:24:00.809Z,80.6676
2023-03-26T06:25:01.068Z,75.2983
2023-03-26T06:26:01.441Z,71.5909
2023-03-26T06:28:01.626Z,67.5000
2023-03-26T06:29:01.670Z,67.5000
2023-03-26T06:30:01.939Z,68.7784
2023-03-26T06:32:16.179Z,73.1250
2023-03-26T06:33:04.441Z,78.4286
2023-03-26T06:34:04.595Z,84.1193
2023-03-26T06:35:04.724Z,91.0227
2023-03-26T06:36:05.169Z,97.4148
2023-03-26T06:37:05.492Z,101.2500
2023-03-26T06:38:05.614Z,100.4830
2023-03-26T06:39:09.782Z,95.6250
2023-03-26T06:40:09.890Z,94.0909
2023-03-26T06:41:10.575Z,87.9545
2023-03-26T06:42:10.910Z,80.9233
2023-03-26T06:44:12.004Z,74.7869
2023-03-26T06:45:12.112Z,73.1250
2023-03-26T06:46:12.519Z,73.1250
2023-03-26T06:47:12.630Z,73.1250
2023-03-26T06:48:13.063Z,68.9062
2023-03-26T06:50:13.286Z,56.3778
2023-03-26T06:51:13.542Z,59.4460
2023-03-26T06:52:13.736Z,61.8750
2023-03-26T06:53:13.861Z,61.8750
2023-03-26T06:54:14.169Z,61.8750
2023-03-26T06:55:14.247Z,57.2727
2023-03-26T06:56:15.220Z,56.2500
2023-03-26T06:57:15.858Z,58.0398
2023-03-26T06:58:15.975Z,61.7472
2023-03-26T06:59:16.249Z,61.8750
2023-03-26T07:00:16.387Z,61.8750
2023-03-26T07:02:16.670Z,76.1932
2023-03-26T07:03:17.203Z,78.6222
2023-03-26T07:04:18.402Z,81.3068
2023-03-26T07:05:18.887Z,87.8267
2023-03-26T07:06:18.981Z,93.5795
2023-03-26T07:07:19.274Z,99.8438
2023-03-26T07:08:19.941Z,113.2031
2023-03-26T07:09:20.167Z,121.0653
2023-03-26T07:10:20.273Z,120.2983
2023-03-26T07:11:21.138Z,118.1250
2023-03-26T07:12:21.411Z,118.1250
2023-03-26T07:13:21.453Z,105.7244
2023-03-26T07:14:22.561Z,91.0227
2023-03-26T07:17:23.490Z,113.0114
2023-03-26T07:18:23.935Z,128.9915
2023-03-26T07:19:24.024Z,169.6449
2023-03-26T07:20:24.445Z,190.6108
2023-03-26T07:21:24.921Z,166.9602
2023-03-26T07:22:25.153Z,136.9176
2023-03-26T07:23:25.554Z,107.5142
2023-03-26T07:24:25.846Z,95.6250
2023-03-26T07:25:26.000Z,87.3153
2023-03-26T07:26:26.212Z,81.0511
2023-03-26T07:27:26.342Z,87.1875
2023-03-26T07:28:26.752Z,97.7983
2023-03-26T07:29:27.621Z,102.6923
2023-03-26T07:30:27.705Z,115.0568
2023-03-26T07:31:28.064Z,124.1335
2023-03-26T07:32:28.764Z,138.1960
2023-03-26T07:33:29.061Z,144.9716
2023-03-26T07:34:29.237Z,125.4119
2023-03-26T07:35:29.644Z,106.3636
2023-03-26T07:36:29.738Z,94.9858
2023-03-26T07:37:30.023Z,90.0000
2023-03-26T07:38:30.103Z,92.4290
2023-03-26T07:39:31.304Z,106.3636
2023-03-26T07:40:31.597Z,112.5000
2023-03-26T07:41:32.247Z,108.1534
2023-03-26T07:42:32.414Z,110.9659
2023-03-26T07:43:32.636Z,137.5568
2023-03-26T07:44:34.590Z,177.3153
2023-03-26T07:45:33.335Z,203.4375
2023-03-26T07:46:33.709Z,204.8011
2023-03-26T07:47:34.141Z,183.0682
2023-03-26T07:50:35.677Z,157.5000
2023-03-26T07:51:36.363Z,156.8608
2023-03-26T07:52:36.512Z,150.2131
2023-03-26T07:53:36.764Z,174.8864
2023-03-26T07:54:36.924Z,236.8892
2023-03-26T07:55:37.186Z,262.3296
2023-03-26T07:56:37.373Z,256.0653
2023-03-26T07:57:38.369Z,289.8837
2023-03-26T07:58:38.475Z,315.3835
2023-03-26T07:59:38.812Z,295.3125
2023-03-26T08:00:38.944Z,256.8324
2023-03-26T08:01:39.167Z,233.5653
2023-03-26T08:02:39.352Z,202.2443
2023-03-26T08:03:40.436Z,211.7045
2023-03-26T08:04:41.494Z,225.8036
2023-03-26T08:05:42.302Z,199.0483
2023-03-26T08:06:42.549Z,190.6108
2023-03-26T08:07:43.522Z,168.4943
2023-03-26T08:08:43.805Z,142.5426
2023-03-26T08:09:44.107Z,154.3040
2023-03-26T08:10:44.211Z,148.9347
2023-03-26T08:11:44.977Z,172.0739
2023-03-26T08:12:45.222Z,236.6335
2023-03-26T08:13:45.471Z,273.7074
2023-03-26T08:14:45.703Z,283.5511
2023-03-26T08:15:46.203Z,280.8665
2023-03-26T08:18:47.060Z,151.3636
2023-03-26T08:19:47.502Z,138.4517
2023-03-26T08:20:47.717Z,137.8125
2023-03-26T08:21:48.089Z,129.5028
2023-03-26T08:22:48.232Z,119.2756
2023-03-26T08:23:51.963Z,113.9732
2023-03-26T08:25:51.195Z,142.2869
2023-03-26T08:26:51.640Z,150.5966
2023-03-26T08:28:52.074Z,155.5824
2023-03-26T08:29:52.287Z,146.2500
2023-03-26T08:30:53.241Z,139.4744
2023-03-26T08:31:53.242Z,138.4012
2023-03-26T08:32:53.696Z,142.0312
2023-03-26T08:33:53.908Z,152.2585
2023-03-26T08:34:54.322Z,163.5085
2023-03-26T08:35:55.075Z,159.4176
2023-03-26T08:36:55.558Z,159.2898
2023-03-26T08:37:55.756Z,169.0057
2023-03-26T08:38:56.111Z,162.2301
2023-03-26T08:39:56.362Z,237.7841
2023-03-26T08:40:57.372Z,291.2216
2023-03-26T08:41:57.881Z,387.7415
2023-03-26T08:42:58.190Z,431.0796
2023-03-26T08:43:58.548Z,544.2188
2023-03-26T08:44:58.958Z,671.2926
2023-03-26T08:46:59.526Z,664.9006
2023-03-26T08:47:59.990Z,572.5994
2023-03-26T08:49:00.166Z,507.5284
2023-03-26T08:50:00.860Z,662.8125
2023-03-26T08:51:01.728Z,724.3466
2023-03-26T08:52:02.078Z,697.8835
2023-03-26T08:53:02.255Z,555.4688
2023-03-26T08:54:02.567Z,580.7812
2023-03-26T08:55:02.932Z,551.5179
2023-03-26T08:56:03.303Z,428.9062
2023-03-26T08:57:03.712Z,387.8693
2023-03-26T08:58:04.818Z,335.0893
2023-03-26T09:00:05.915Z,273.3482
2023-03-26T09:01:07.041Z,317.1733
2023-03-26T09:02:07.672Z,317.1733
2023-03-26T09:03:08.399Z,256.3210
2023-03-26T09:04:08.817Z,154.5597
2023-03-26T09:05:09.062Z,133.4659
2023-03-26T09:06:09.268Z,142.2869
2023-03-26T09:07:09.561Z,123.8839
2023-03-26T09:08:09.730Z,91.9176
2023-03-26T09:09:18.766Z,99.9844
2023-03-26T09:10:11.662Z,122.3077
2023-03-26T09:11:12.567Z,150.2131
2023-03-26T09:12:12.919Z,175.5256
2023-03-26T09:13:13.389Z,203.4375
2023-03-26T09:15:14.020Z,179.3608
2023-03-26T09:16:14.596Z,210.8097
2023-03-26T09:17:15.073Z,195.7244
2023-03-26T09:18:15.573Z,144.0767
2023-03-26T09:19:15.788Z,180.0000
2023-03-26T09:21:16.809Z,436.0653
2023-03-26T09:22:17.114Z,693.2812
2023-03-26T09:23:17.328Z,1030.9091
2023-03-26T09:24:17.715Z,1231.3636
2023-03-26T09:25:17.956Z,1323.9204
2023-03-26T09:26:18.357Z,2018.6079
2023-03-26T09:27:18.523Z,1436.2926
2023-03-26T09:28:18.838Z,1496.5057
2023-03-26T09:29:18.975Z,1339.5171
2023-03-26T09:30:20.014Z,1328.8081
2023-03-26T09:31:20.356Z,1321.1079
2023-03-26T09:32:21.103Z,1322.5142
2023-03-26T09:33:21.476Z,1236.9886
2023-03-26T09:34:21.801Z,1115.5398
2023-03-26T09:35:21.946Z,1001.1161
2023-03-26T09:36:22.630Z,917.8977
2023-03-26T09:37:22.840Z,850.6534
2023-03-26T09:38:23.654Z,810.0000
2023-03-26T09:39:24.025Z,899.4886
2023-03-26T09:40:24.127Z,980.7955
2023-03-26T09:42:25.077Z,902.6846
2023-03-26T09:43:25.402Z,891.9460
2023-03-26T09:44:25.700Z,864.9716
2023-03-26T09:45:25.996Z,807.5710
2023-03-26T09:46:26.471Z,760.9091
2023-03-26T09:47:27.028Z,627.5710
2023-03-26T09:48:27.404Z,569.7869
2023-03-26T09:49:27.810Z,681.1364
2023-03-26T09:50:28.029Z,817.2869
2023-03-26T09:51:28.445Z,851.2500
2023-03-26T09:52:28.668Z,865.0994
2023-03-26T09:53:29.076Z,927.3580
2023-03-26T09:54:29.325Z,964.0483
2023-03-26T09:55:29.804Z,967.1165
2023-03-26T09:56:30.029Z,1013.0114
2023-03-26T09:57:30.588Z,1020.0426
2023-03-26T09:58:31.181Z,1066.1932
2023-03-26T09:59:31.366Z,1178.8210
2023-03-26T10:01:32.468Z,1315.7386
2023-03-26T10:02:46.672Z,1268.1105
2023-03-26T10:03:37.428Z,1128.6487
2023-03-26T10:04:38.083Z,1093.2954
2023-03-26T10:05:38.851Z,1131.3921
2023-03-26T10:06:39.485Z,1077.4432
2023-03-26T10:07:40.152Z,1051.1079
2023-03-26T10:08:40.605Z,1083.8352
2023-03-26T10:10:41.516Z,1134.7159
2023-03-26T10:11:42.159Z,1195.3779
2023-03-26T10:12:41.760Z,1279.0989
2023-03-26T10:14:42.391Z,1467.9972
2023-03-26T10:16:42.692Z,1404.4602
2023-03-26T10:17:43.341Z,1345.2699
2023-03-26T10:19:44.514Z,1380.1704
2023-03-26T10:20:44.988Z,1484.7443
2023-03-26T10:21:45.869Z,1501.4634
2023-03-26T10:22:46.206Z,1546.1079
2023-03-26T10:23:46.678Z,1500.0852
2023-03-26T10:24:46.965Z,1395.7671
2023-03-26T10:25:47.404Z,1301.6761
2023-03-26T10:27:09.208Z,1139.3182
2023-03-26T10:27:48.674Z,974.2137
2023-03-26T10:28:49.179Z,991.5341
2023-03-26T10:29:49.763Z,953.1818
2023-03-26T10:30:50.388Z,953.8210
2023-03-26T10:31:51.163Z,961.2358
2023-03-26T10:33:51.653Z,1012.7617
2023-03-26T10:34:52.782Z,1053.3552
2023-03-26T10:35:53.414Z,1067.3438
2023-03-26T10:36:54.114Z,1072.8409
2023-03-26T10:37:54.184Z,1089.5494
2023-03-26T10:38:54.725Z,1109.5312
2023-03-26T10:39:55.636Z,1071.4718
2023-03-26T10:40:56.287Z,950.7529
2023-03-26T10:41:56.052Z,883.9099
2023-03-26T10:42:56.343Z,859.0909
2023-03-26T10:44:07.525Z,822.2727
2023-03-26T10:44:57.075Z,800.1182
2023-03-26T10:45:57.777Z,799.0057
2023-03-26T10:46:58.342Z,810.7670
2023-03-26T10:47:59.047Z,832.7557
2023-03-26T10:48:59.469Z,854.8721
2023-03-26T10:50:00.409Z,903.7074
2023-03-26T10:51:01.666Z,934.0312
2023-03-26T10:52:02.333Z,977.0881
2023-03-26T10:53:03.202Z,1009.1761
2023-03-26T10:54:04.333Z,1019.0199
2023-03-26T10:55:05.376Z,1024.2614
2023-03-26T10:56:06.053Z,1030.0142
2023-03-26T10:57:07.123Z,1035.7671
2023-03-26T10:58:08.005Z,1081.2784
2023-03-26T10:59:08.409Z,1166.4474
2023-03-26T11:00:09.448Z,1260.1278
2023-03-26T11:01:09.957Z,1313.8210
2023-03-26T11:02:11.083Z,1363.0398
2023-03-26T11:06:13.490Z,1381.3210
2023-03-26T11:07:14.507Z,1210.9822
2023-03-26T11:08:14.869Z,1140.7245
2023-03-26T11:09:15.324Z,1128.7042
2023-03-26T11:10:15.808Z,1144.8153
2023-03-26T11:11:16.379Z,1159.2614
2023-03-26T11:12:26.738Z,1139.2031
2023-03-26T11:13:18.337Z,1147.0439
2023-03-26T11:14:33.784Z,1168.5267
2023-03-26T11:15:22.372Z,1221.3462
2023-03-26T11:16:23.170Z,1276.4915
2023-03-26T11:17:40.627Z,1335.2344
2023-03-26T11:18:24.423Z,1431.5625
2023-03-26T11:19:24.972Z,1494.0767
2023-03-26T11:22:26.834Z,1615.0142
2023-03-26T11:23:27.758Z,1688.9062
2023-03-26T11:24:28.732Z,1616.4844
2023-03-26T11:25:29.165Z,1580.2233
2023-03-26T11:26:29.644Z,1514.9148
2023-03-26T11:27:29.698Z,1391.2500
2023-03-26T11:28:30.176Z,1261.0227
2023-03-26T11:29:33.636Z,1145.5664
2023-03-26T11:31:32.359Z,1118.7358
2023-03-26T11:32:33.124Z,1183.7355
2023-03-26T11:33:33.561Z,1298.2245
2023-03-26T11:34:34.754Z,1431.5625
2023-03-26T11:35:41.756Z,1504.6154
2023-03-26T11:37:41.017Z,1319.5739
2023-03-26T11:38:41.573Z,1333.1250
2023-03-26T11:39:41.979Z,1348.5938
2023-03-26T11:40:42.652Z,1380.2983
2023-03-26T11:41:43.075Z,1442.0454
2023-03-26T11:42:43.795Z,1484.4886
2023-03-26T11:43:44.197Z,1430.1562
2023-03-26T11:44:44.814Z,1435.6534
2023-03-26T11:45:45.306Z,1524.6307
2023-03-26T11:46:45.738Z,1564.7727
2023-03-26T11:47:46.657Z,1488.9630
2023-03-26T11:48:47.143Z,1536.1364
2023-03-26T11:49:47.575Z,1616.4204
2023-03-26T11:50:48.009Z,1501.7472
2023-03-26T11:51:48.896Z,1477.5852
2023-03-26T11:53:49.418Z,1802.4290
2023-03-26T11:54:49.987Z,1959.4176
2023-03-26T11:55:50.256Z,1859.3182
2023-03-26T11:57:06.021Z,1692.9911
2023-03-26T11:57:54.342Z,1542.2596
2023-03-26T11:58:54.847Z,1552.6278
2023-03-26T11:59:59.968Z,1598.1250
2023-03-26T12:01:00.766Z,1876.0653
2023-03-26T12:02:01.320Z,2254.0908
2023-03-26T12:03:01.555Z,3013.8228
2023-03-26T12:04:02.036Z,2846.8892
2023-03-26T12:05:03.397Z,3175.1846
2023-03-26T12:06:04.354Z,1786.4489
2023-03-26T12:07:04.686Z,1296.0511
2023-03-26T12:08:05.415Z,1338.8778
2023-03-26T12:09:05.778Z,1291.9602
2023-03-26T12:10:18.280Z,1037.6847
2023-03-26T12:11:11.865Z,763.5577
2023-03-26T12:12:13.045Z,642.0170
2023-03-26T12:13:13.640Z,488.0966
2023-03-26T12:14:14.005Z,359.4886
2023-03-26T12:15:14.543Z,358.2102
2023-03-26T12:16:14.958Z,410.8807
2023-03-26T12:17:15.730Z,472.2384
2023-03-26T12:18:16.863Z,519.3281
2023-03-26T12:19:17.330Z,504.4602
2023-03-26T12:20:17.902Z,451.6619
2023-03-26T12:21:18.521Z,396.4347
2023-03-26T12:22:19.233Z,380.7102
2023-03-26T12:23:19.627Z,434.0199
2023-03-26T12:24:20.251Z,503.0540
2023-03-26T12:25:20.645Z,497.8125
2023-03-26T12:26:21.247Z,436.1932
2023-03-26T12:27:21.632Z,384.1619
2023-03-26T12:28:22.143Z,342.9972
2023-03-26T12:29:22.732Z,310.7143
2023-03-26T12:30:23.401Z,276.9034
2023-03-26T12:31:23.923Z,243.2812
2023-03-26T12:32:32.439Z,233.9489
2023-03-26T12:33:25.349Z,251.8125
2023-03-26T12:34:25.466Z,324.1570
2023-03-26T12:36:26.831Z,620.1562
2023-03-26T12:37:27.387Z,834.6733
2023-03-26T12:38:27.904Z,1032.4432
2023-03-26T12:40:30.702Z,1376.2500
2023-03-26T12:44:44.672Z,1880.4688
2023-03-26T12:44:50.756Z,2784.3750
2023-03-26T12:44:52.690Z,2388.9583
2023-03-26T12:45:00.519Z,2052.0833
2023-03-26T12:47:55.405Z,1412.0270
2023-03-26T12:48:00.516Z,1263.8104
2023-03-26T12:48:06.507Z,1232.2767
2023-03-26T12:49:07.267Z,1252.0739
2023-03-26T12:50:08.560Z,1940.1136
2023-03-26T12:51:08.940Z,3684.6711
2023-03-26T12:52:09.543Z,3805.3125
2023-03-26T12:53:10.002Z,3744.3323
2023-03-26T12:54:10.270Z,3692.9404
2023-03-26T12:55:13.997Z,3662.6785
2023-03-26T12:57:14.476Z,3731.5625
2023-03-26T12:58:15.966Z,3777.0396
2023-03-26T12:59:16.363Z,3833.1819
2023-03-26T13:00:17.135Z,3907.0740
2023-03-26T13:01:17.819Z,3941.7188
2023-03-26T13:02:18.876Z,3803.2671
2023-03-26T13:03:19.405Z,2829.2441